createdAt,value
2024-04-05T00:00:41.369Z,934.1
2024-04-05T00:15:41.884Z,933.8
2024-04-05T00:30:43.306Z,933.9
2024-04-05T00:45:44.194Z,934
2024-04-05T01:00:45.239Z,933.9
2024-04-05T01:15:45.872Z,934.3
2024-04-05T01:30:48.845Z,934.2
2024-04-05T01:45:48.624Z,934.3
2024-04-05T02:00:48.336Z,934.2
2024-04-05T02:15:47.661Z,934.2
2024-04-05T02:30:50.507Z,934.3
2024-04-05T02:45:51.325Z,934.6
2024-04-05T03:00:52.006Z,934.8
2024-04-05T03:15:51.882Z,935
2024-04-05T03:30:51.094Z,934.8
2024-04-05T03:45:52.742Z,934.7
2024-04-05T04:00:53.315Z,934.5
2024-04-05T04:15:53.854Z,934.5
2024-04-05T04:30:54.774Z,934.6
2024-04-05T04:45:55.415Z,934.4
2024-04-05T04:53:15.843Z,934.4
2024-04-05T05:08:17.505Z,934
2024-04-05T05:23:17.134Z,933.8
2024-04-05T05:38:19.312Z,934.5
2024-04-05T05:53:19.237Z,934.4
2024-04-05T06:08:20.371Z,934.6
2024-04-05T06:23:19.782Z,934.6
2024-04-05T06:38:21.022Z,934.5
2024-04-05T06:53:23.433Z,934.2
2024-04-05T07:08:22.683Z,933.5
2024-04-05T07:23:22.738Z,933.3
2024-04-05T07:38:24.630Z,933.2
2024-04-05T07:53:24.194Z,933.2
2024-04-05T08:08:25.651Z,933.2
2024-04-05T08:23:28.108Z,933.2
2024-04-05T08:38:26.621Z,933.4
2024-04-05T08:53:29.538Z,933.4
2024-04-05T09:08:30.107Z,933.4
2024-04-05T09:23:28.766Z,933.1
2024-04-05T09:38:29.644Z,933
2024-04-05T09:53:31.048Z,932.8
2024-04-05T10:08:30.607Z,933.1
2024-04-05T10:23:31.705Z,933
2024-04-05T10:38:51.374Z,932.9
2024-04-05T10:53:33.089Z,932.8
2024-04-05T11:08:33.526Z,932.6
2024-04-05T11:23:36.087Z,932.6
2024-04-05T11:38:35.385Z,932.4
2024-04-05T11:53:35.646Z,932.3
2024-04-05T12:08:36.635Z,932.2
2024-04-05T12:23:37.501Z,932.2
2024-04-05T12:38:45.904Z,932.2
2024-04-05T12:53:38.490Z,932.3
2024-04-05T13:08:39.194Z,931.8
2024-04-05T13:23:40.525Z,931.9
2024-04-05T13:38:41.051Z,931.9
2024-04-05T13:53:41.097Z,931.7
2024-04-05T14:08:42.975Z,931.8
2024-04-05T14:23:42.826Z,931.7
2024-04-05T14:38:48.835Z,931.8
2024-04-05T14:53:44.125Z,931.8
2024-04-05T15:08:48.362Z,931.7
2024-04-05T15:23:47.399Z,932
2024-04-05T15:39:03.480Z,932
2024-04-05T15:53:50.266Z,931.9
2024-04-05T16:08:50.212Z,932.2
2024-04-05T16:23:55.218Z,932.5
2024-04-05T16:38:50.730Z,932.6
2024-04-05T16:53:51.207Z,932.8
2024-04-05T17:08:51.018Z,932.8
2024-04-05T17:24:11.336Z,932.8
2024-04-05T17:38:52.465Z,932.8
2024-04-05T17:54:02.630Z,932.8
2024-04-05T18:08:57.978Z,933.1
2024-04-05T18:23:55.583Z,933.2
2024-04-05T18:38:56.011Z,933.5
2024-04-05T18:53:56.733Z,933.5
2024-04-05T19:08:58.123Z,933.8
2024-04-05T19:24:07.383Z,933.8
2024-04-05T19:38:59.776Z,933.7
2024-04-05T19:53:59.380Z,933.7
2024-04-05T20:09:01.356Z,933.7
2024-04-05T20:24:13.293Z,933.7
2024-04-05T20:39:01.035Z,933.6
2024-04-05T20:54:02.310Z,933.7
2024-04-05T21:09:04.083Z,933.7
2024-04-05T21:24:03.905Z,933.8
2024-04-05T21:39:04.591Z,933.6
2024-04-05T21:54:04.940Z,933.8
2024-04-05T22:00:37.055Z,933.8
2024-04-05T22:15:37.109Z,933.9
2024-04-05T22:30:38.362Z,933.8
2024-04-05T22:45:38.654Z,933.9
2024-04-05T23:00:39.926Z,933.8
2024-04-05T23:15:39.463Z,933.9
2024-04-05T23:30:41.174Z,933.9
2024-04-05T23:45:42.990Z,934
